• Join FlightAware (Why Join?)
  • Login
  • US Flag 
05:05AM EDT


 

Airport Tracker/Info


-or-


 

Live Flight TrackerFlight Track Log ✈ ASA123 ✈ 09-May-2013 ✈ KSEA - PAFA / FAI

Flight Track Log - Related Links

Times and Time Zones

All times are in EDT time to prevent confusion due to time zone crossing. See the ASA123 flight status page for this flight to view local times or setup timezone preferences in your user account.

Time Position Orientation Groundspeed Altitude Reporting Facility
EDT Latitude Longitude Course Direction KTS MPH feet Rate Location/Type
04:24PM 47.4278 -122.3078 181° South 166 191 1,400  Level Seattle Center
04:25PM 47.3544 -122.3100 181° South 227 261 3,100 1,680 Climbing Seattle Center
04:26PM 47.3125 -122.3833 230° Southwest 264 304 5,200 1,740 Climbing Seattle Center
04:27PM 47.3258 -122.4922 280° West 281 323 6,700 1,800 Climbing Seattle Center
04:28PM 47.3844 -122.5792 315° West 280 322 8,900 1,860 Climbing Seattle Center
04:29PM 47.4456 -122.6589 319° Northwest 291 335 10,600 1,560 Climbing Seattle Center
04:30PM 47.5189 -122.7542 319° Northwest 349 402 12,100 1,740 Climbing Seattle Center
04:31PM 47.5944 -122.8508 319° Northwest 370 426 14,200 2,160 Climbing Seattle Center
04:32PM 47.6672 -122.9658 313° West 385 443 16,600 2,100 Climbing Seattle Center
04:33PM 47.7239 -123.1039 301° West 394 453 18,500 1,920 Climbing Seattle Center
04:34PM 47.7831 -123.2450 302° West 404 465 20,600 1,860 Climbing Seattle Center
04:35PM 47.8667 -123.3594 317° Northwest 421 484 22,400 1,680 Climbing Seattle Center
04:36PM 47.9689 -123.4467 330° Northwest 426 490 24,100 1,680 Climbing Seattle Center
04:37PM 48.0853 -123.5486 330° Northwest 431 496 25,900 1,500 Climbing Seattle Center
04:38PM 48.1903 -123.6419 329° Northwest 438 504 27,200 1,140 Climbing Seattle Center
04:39PM 48.2986 -123.7369 330° Northwest 447 514 28,300 1,380 Climbing Seattle Center
04:40PM 48.4333 -123.8833 324° Northwest 460 529 30,400 1,560 Climbing Vancouver Center
04:41PM 48.5333 -123.9500 336° Northwest 450 518 31,800 1,200 Climbing Vancouver Center
04:42PM 48.6333 -124.0500 327° Northwest 450 518 32,900 1,080 Climbing Vancouver Center
04:43PM 48.7500 -124.1500 331° Northwest 440 506 34,000 1,080 Climbing Vancouver Center
04:44PM 48.8500 -124.2500 327° Northwest 440 506 35,100 960 Climbing Vancouver Center
04:45PM 48.9500 -124.3667 323° Northwest 440 506 36,000 420 Climbing Vancouver Center
04:46PM 49.0500 -124.4333 336° Northwest 440 506 36,000  Level Vancouver Center
04:47PM 49.1667 -124.5333 331° Northwest 440 506 36,000  Level Vancouver Center
04:48PM 49.2667 -124.6500 323° Northwest 440 506 36,000  Level Vancouver Center
04:49PM 49.3667 -124.7167 337° Northwest 440 506 36,000  Level Vancouver Center
04:50PM 49.4833 -124.8333 327° Northwest 440 506 36,000  Level Vancouver Center
04:52PM 49.6117 -124.9417 331° Northwest  Level FlightAware Approximate
04:52PM 49.6833 -125.0167 331° Northwest 440 506 36,000  Level Vancouver Center
04:53PM 49.7833 -125.1167 327° Northwest 430 495 36,000  Level Vancouver Center
04:54PM 49.8833 -125.2167 327° Northwest 440 506 36,000  Level Vancouver Center
04:55PM 50.0000 -125.3000 335° Northwest 440 506 36,000  Level Vancouver Center
04:56PM 50.1000 -125.4167 323° Northwest 430 495 36,000  Level Vancouver Center
04:57PM 50.2000 -125.5167 327° Northwest 440 506 36,000  Level Vancouver Center
04:58PM 50.3000 -125.6000 332° Northwest 430 495 36,000  Level Vancouver Center
04:59PM 50.4167 -125.7167 328° Northwest 430 495 36,000  Level Vancouver Center
05:00PM 50.5000 -125.8167 323° Northwest 430 495 36,000  Level Vancouver Center
05:01PM 50.6000 -125.9000 332° Northwest 440 506 36,000  Level Vancouver Center
05:02PM 50.7000 -126.0167 324° Northwest 440 506 36,000  Level Vancouver Center
05:03PM 50.8167 -126.1167 332° Northwest 440 506 36,000  Level Vancouver Center
05:04PM 50.9167 -126.2167 328° Northwest 440 506 36,000  Level Vancouver Center
05:05PM 51.0167 -126.3167 328° Northwest 440 506 36,000  Level Vancouver Center
05:06PM 51.1333 -126.4333 328° Northwest 440 506 36,000  Level Vancouver Center
05:07PM 51.2333 -126.5500 324° Northwest 430 495 36,000  Level Vancouver Center
05:08PM 51.3333 -126.6333 333° Northwest 430 495 36,000  Level Vancouver Center
05:09PM 51.4167 -126.7500 319° Northwest 430 495 36,000  Level Vancouver Center
05:10PM 51.5167 -126.8333 333° Northwest 430 495 36,000  Level Vancouver Center
05:11PM 51.6167 -126.9500 324° Northwest 430 495 36,000  Level Vancouver Center
05:12PM 51.7333 -127.0667 328° Northwest 430 495 36,000  Level Vancouver Center
05:13PM 51.8167 -127.1500 328° Northwest 430 495 36,000  Level Vancouver Center
05:14PM 51.9333 -127.2667 328° Northwest 430 495 36,000  Level Vancouver Center
05:15PM 52.0167 -127.3500 328° Northwest 430 495 36,000  Level Vancouver Center
05:16PM 52.1167 -127.4667 324° Northwest 430 495 36,000  Level Vancouver Center
05:17PM 52.2167 -127.5833 324° Northwest 430 495 36,000  Level Vancouver Center
05:18PM 52.3333 -127.7000 329° Northwest 430 495 36,000  Level Vancouver Center
05:19PM 52.4333 -127.8000 329° Northwest 430 495 36,000  Level Vancouver Center
05:20PM 52.5167 -127.9167 320° Northwest 440 506 36,000  Level Vancouver Center
05:21PM 52.6167 -128.0000 333° Northwest 430 495 36,000  Level Vancouver Center
05:22PM 52.7333 -128.1333 325° Northwest 430 495 36,000  Level Vancouver Center
05:23PM 52.8333 -128.2500 325° Northwest 430 495 36,000  Level Vancouver Center
05:24PM 52.9333 -128.3333 333° Northwest 430 495 36,000  Level Vancouver Center
05:25PM 53.0167 -128.4667 316° Northwest 440 506 36,000  Level Vancouver Center
05:26PM 53.1167 -128.5833 325° Northwest 430 495 36,000  Level Vancouver Center
05:27PM 53.2333 -128.6833 333° Northwest 430 495 36,000  Level Vancouver Center
05:28PM 53.3333 -128.8000 325° Northwest 430 495 36,000  Level Vancouver Center
05:29PM 53.4167 -128.9333 316° Northwest 430 495 36,000  Level Vancouver Center
05:30PM 53.5167 -129.0167 334° Northwest 440 506 36,000  Level Vancouver Center
05:31PM 53.6333 -129.1500 326° Northwest 430 495 36,000  Level Vancouver Center
05:32PM 53.7167 -129.2667 320° Northwest 430 495 36,000  Level Vancouver Center
05:33PM 53.8167 -129.3667 329° Northwest 430 495 36,000  Level Vancouver Center
05:34PM 53.9167 -129.5000 322° Northwest 430 495 36,000  Level Vancouver Center
05:35PM 54.0167 -129.6000 330° Northwest 430 495 36,000  Level Vancouver Center
05:36PM 54.1000 -129.7167 321° Northwest 430 495 36,000  Level Vancouver Center
05:37PM 54.2000 -129.8500 322° Northwest 430 495 36,000  Level Vancouver Center
05:38PM 54.3167 -129.9833 326° Northwest 430 495 36,000  Level Vancouver Center
05:39PM 54.4000 -130.0833 325° Northwest 430 495 36,000  Level Vancouver Center
05:40PM 54.5000 -130.2000 326° Northwest 430 495 36,000  Level Vancouver Center
05:41PM 54.6000 -130.3167 326° Northwest 430 495 36,000  Level Vancouver Center
05:42PM 54.7000 -130.4500 322° Northwest 430 495 36,000  Level Vancouver Center
05:43PM 54.7833 -130.5667 321° Northwest 430 495 36,000  Level Vancouver Center
05:44PM 54.8833 -130.6833 326° Northwest 430 495 36,000  Level Vancouver Center
05:45PM 54.9833 -130.8167 323° Northwest 430 495 36,000  Level Vancouver Center
05:46PM 55.0833 -130.9333 326° Northwest 430 495 36,000  Level Vancouver Center
05:47PM 55.1167 -130.9333 360° North 430 495 36,000  Level Anchorage Center
05:48PM 55.2167 -131.0500 326° Northwest 420 483 36,000  Level Anchorage Center
05:49PM 55.3000 -131.1667 321° Northwest 420 483 36,000  Level Anchorage Center
05:50PM 55.4000 -131.3000 323° Northwest 420 483 36,000 240 Level Anchorage Center
05:51PM 55.4833 -131.4167 322° Northwest 420 483 36,500 660 Climbing Anchorage Center
05:52PM 55.5833 -131.5333 327° Northwest 420 483 37,400 720 Climbing Anchorage Center
05:53PM 55.6667 -131.6500 322° Northwest 410 472 38,000 240 Climbing Anchorage Center
05:54PM 55.7500 -131.7667 322° Northwest 410 472 38,000  Level Anchorage Center
05:55PM 55.8500 -131.9000 323° Northwest 420 483 38,000  Level Anchorage Center
05:56PM 55.9333 -132.0167 322° Northwest 410 472 38,000  Level Anchorage Center
05:57PM 56.0333 -132.1333 327° Northwest 410 472 38,000  Level Anchorage Center
05:58PM 56.1167 -132.2667 318° Northwest 410 472 38,000  Level Anchorage Center
05:59PM 56.2167 -132.3833 327° Northwest 400 460 38,000  Level Anchorage Center
06:00PM 56.3000 -132.5000 322° Northwest 410 472 38,000  Level Anchorage Center
06:01PM 56.4000 -132.6333 324° Northwest 410 472 38,000  Level Anchorage Center
06:02PM 56.5500 -132.8833 317° Northwest 410 472 38,000  Level Vancouver Center
06:03PM 56.5667 -132.8833 360° North 410 472 38,000  Level Anchorage Center
06:04PM 56.6667 -133.0000 327° Northwest 410 472 38,000  Level Anchorage Center
06:05PM 56.7500 -133.1333 319° Northwest 410 472 38,000  Level Anchorage Center
06:06PM 56.8333 -133.2667 319° Northwest 410 472 38,000  Level Anchorage Center
06:07PM 56.9333 -133.3833 328° Northwest 410 472 38,000  Level Anchorage Center
06:08PM 57.0167 -133.5167 319° Northwest 410 472 38,000  Level Anchorage Center
06:09PM 57.1167 -133.6500 324° Northwest 410 472 38,000  Level Anchorage Center
06:10PM 57.2000 -133.7833 319° Northwest 420 483 38,000  Level Anchorage Center
06:11PM 57.2833 -133.9167 319° Northwest 410 472 38,000  Level Anchorage Center
06:12PM 57.3833 -134.0500 324° Northwest 420 483 38,000  Level Anchorage Center
06:13PM 57.4667 -134.1833 319° Northwest 410 472 38,000  Level Anchorage Center
06:14PM 57.5500 -134.3167 319° Northwest 410 472 38,000  Level Anchorage Center
06:15PM 57.6500 -134.4500 325° Northwest 410 472 38,000  Level Anchorage Center
06:16PM 57.7333 -134.5667 323° Northwest 410 472 38,000  Level Anchorage Center
06:17PM 57.8167 -134.7000 320° Northwest 400 460 38,000  Level Anchorage Center
06:18PM 57.9000 -134.8333 320° Northwest 410 472 38,000  Level Anchorage Center
06:19PM 58.0000 -134.9833 322° Northwest 410 472 38,000  Level Anchorage Center
06:20PM 58.0833 -135.1167 320° Northwest 410 472 38,000  Level Anchorage Center
06:21PM 58.1667 -135.2500 320° Northwest 410 472 38,000  Level Anchorage Center
06:22PM 58.2667 -135.3500 332° Northwest 420 483 38,000  Level Anchorage Center
06:23PM 58.3667 -135.4667 329° Northwest 430 495 38,000  Level Anchorage Center
06:24PM 58.4833 -135.5833 332° Northwest 430 495 38,000  Level Anchorage Center
06:25PM 58.5833 -135.6833 332° Northwest 420 483 38,000  Level Anchorage Center
06:26PM 58.6833 -135.8000 329° Northwest 420 483 38,000  Level Anchorage Center
06:27PM 58.7833 -135.9167 329° Northwest 420 483 38,000  Level Anchorage Center
06:28PM 58.8833 -136.0167 333° Northwest 420 483 38,000  Level Anchorage Center
06:29PM 58.9833 -136.1333 329° Northwest 410 472 38,000  Level Anchorage Center
06:30PM 59.0833 -136.2333 333° Northwest 410 472 38,000  Level Anchorage Center
06:31PM 59.1833 -136.3500 329° Northwest 410 472 38,000  Level Anchorage Center
06:32PM 59.2833 -136.4667 329° Northwest 410 472 38,000  Level Anchorage Center
06:33PM 59.3833 -136.5833 329° Northwest 410 472 38,000  Level Anchorage Center
06:34PM 59.4833 -136.7000 329° Northwest 410 472 38,000  Level Anchorage Center
06:35PM 59.5833 -136.8167 329° Northwest 420 483 38,000  Level Anchorage Center
06:36PM 59.6667 -136.9167 329° Northwest 410 472 38,000  Level Anchorage Center
06:37PM 59.7667 -137.0333 330° Northwest 420 483 38,000  Level Anchorage Center
06:38PM 59.8667 -137.1500 330° Northwest 410 472 38,000  Level Anchorage Center
06:39PM 59.9667 -137.2833 326° Northwest 420 483 38,000  Level Anchorage Center
06:40PM 60.0667 -137.4000 330° Northwest 420 483 38,000  Level Anchorage Center
06:41PM 60.1667 -137.5167 330° Northwest 410 472 38,000  Level Anchorage Center
06:42PM 60.2667 -137.6333 330° Northwest 410 472 38,000  Level Anchorage Center
06:43PM 60.3667 -137.7500 330° Northwest 420 483 38,000  Level Anchorage Center
06:44PM 60.4667 -137.8667 330° Northwest 410 472 38,000  Level Anchorage Center
06:45PM 60.5667 -138.0000 327° Northwest 410 472 38,000  Level Anchorage Center
06:46PM 60.6667 -138.1167 330° Northwest 410 472 38,000  Level Anchorage Center
06:47PM 60.7667 -138.2333 330° Northwest 420 483 38,000  Level Anchorage Center
06:48PM 60.8667 -138.3667 327° Northwest 420 483 38,000  Level Anchorage Center
06:49PM 60.9667 -138.4833 330° Northwest 420 483 38,000  Level Anchorage Center
06:50PM 61.0500 -138.6167 322° Northwest 410 472 38,000  Level Anchorage Center
06:51PM 61.1500 -138.7500 327° Northwest 410 472 38,000  Level Anchorage Center
06:52PM 61.2500 -138.8667 331° Northwest 410 472 38,000  Level Anchorage Center
06:53PM 61.3500 -139.0000 327° Northwest 410 472 38,000  Level Anchorage Center
06:54PM 61.4333 -139.1500 319° Northwest 400 460 38,000  Level Anchorage Center
06:55PM 61.5167 -139.3000 319° Northwest 400 460 38,000  Level Anchorage Center
06:56PM 61.6000 -139.4500 319° Northwest 400 460 38,000  Level Anchorage Center
06:58PM 61.8333 -139.8667 320° Northwest 430 495 38,000  Level Anchorage Center
07:00PM 61.9356 -140.0454 321° Northwest  Level FlightAware Approximate
07:06PM 62.5333 -141.0500 318° Northwest 410 472 38,000  Level Anchorage Center
07:07PM 62.5351 -141.1295 319° Northwest  Level FlightAware Approximate
07:07PM 62.6000 -141.2667 304° West 420 483 38,000  Level Anchorage Center
07:08PM 62.6193 -141.2899 319° Northwest  Level FlightAware Approximate
07:08PM 62.7000 -141.4333 323° Northwest 420 483 38,000  Level Anchorage Center
07:09PM 62.7032 -141.4513 319° Northwest  Level FlightAware Approximate
07:09PM 62.7833 -141.6000 318° Northwest 410 472 38,000  Level Anchorage Center
07:10PM 62.7870 -141.6135 319° Northwest  Level FlightAware Approximate
07:10PM 62.8667 -141.7667 318° Northwest 420 483 38,000  Level Anchorage Center
07:11PM 62.8706 -141.7767 318° Northwest  Level FlightAware Approximate
07:11PM 62.9500 -141.9333 318° Northwest 410 472 38,000  Level Anchorage Center
07:12PM 63.0167 -142.1333 306° West 420 483 38,000  Level Anchorage Center
07:13PM 63.1000 -142.3333 313° West 410 472 38,000  Level Anchorage Center
07:14PM 63.1667 -142.5500 304° West 410 472 38,000  Level Anchorage Center
07:15PM 63.2333 -142.7500 307° West 420 483 38,000  Level Anchorage Center
07:16PM 63.3000 -142.9667 304° West 420 483 38,000  Level Anchorage Center
07:17PM 63.3667 -143.1667 307° West 410 472 38,000  Level Anchorage Center
07:18PM 63.4333 -143.3667 307° West 410 472 38,000  Level Anchorage Center
07:19PM 63.5000 -143.5833 305° West 410 472 38,000  Level Anchorage Center
07:20PM 63.5667 -143.7833 307° West 410 472 38,000  Level Anchorage Center
07:21PM 63.6333 -144.0000 305° West 410 472 38,000 -480 Level Anchorage Center
07:22PM 63.7000 -144.2167 305° West 420 483 37,100 -960 Descending Anchorage Center
07:23PM 63.7667 -144.4333 305° West 420 483 36,100 -1,740 Descending Anchorage Center
07:24PM 63.8333 -144.6333 307° West 410 472 33,700 -2,400 Descending Anchorage Center
07:25PM 63.8833 -144.8167 302° West 410 472 31,300 -2,400 Descending Anchorage Center
07:26PM 63.9667 -145.0667 307° West 390 449 28,900 -2,160 Descending Anchorage Center
07:27PM 64.0167 -145.2667 300° West 380 437 27,000 -1,980 Descending Anchorage Center
07:28PM 64.0833 -145.4667 307° West 360 414 25,000 -1,920 Descending Anchorage Center
07:29PM 64.1333 -145.6500 302° West 350 403 23,200 -1,800 Descending Anchorage Center
07:30PM 64.1833 -145.8167 305° West 340 391 21,500 -1,800 Descending Anchorage Center
07:31PM 64.2500 -146.0167 308° West 340 391 19,600 -1,920 Descending Anchorage Center
07:33PM 64.3376 -146.3341 303° West  Level FlightAware Approximate
07:40PM 64.6001 -147.9327 252° West  Level FlightAware Approximate
07:41PM 64.6708 -147.9150 10° North  Level FlightAware Approximate
07:42PM 64.7809 -147.8627 16° North  Level FlightAware Approximate
07:43PM 64.8000 -147.8500 16° North  Level FlightAware Approximate
07:44PM 64.8151 -147.8564 16° North  Level Estimated
07:45PM 64.8151 -147.8564 16° North  Level Estimated
07:46PM 64.8151 -147.8564 16° North  Level Estimated
07:47PM 64.8151 -147.8564 16° North  Level Estimated
07:48PM 64.8151 -147.8564 16° North  Level Estimated
07:49PM 64.8151 -147.8564 16° North  Level Estimated
07:50PM 64.8151 -147.8564 16° North  Level Estimated
07:51PM 64.8151 -147.8564 16° North  Level Estimated
07:52PM 64.8151 -147.8564 16° North  Level Estimated